This is the latest recevied weather packets stored in our database for station/object K1RFS. If no packets are shown the sender has not sent any weather packets the latest 10 day(s).
| Time | Temp. | Humidity | Pressure | Rain* | Wind** | Luminosity | Snow |
|---|---|---|---|---|---|---|---|
| 1787824230 | 22.78° C | 42% | 1006.9 hPa | 0 mm | - | 0 W/m² | - |
| 1787823927 | 23.33° C | 41% | 1006.9 hPa | 0 mm | - | 0 W/m² | - |
| 1787823621 | 23.33° C | 38% | 1007 hPa | 0 mm | - | 0 W/m² | - |
| 1787823316 | 22.78° C | 39% | 1007 hPa | 0 mm | - | 0 W/m² | - |
| 1787823016 | 22.78° C | 39% | 1007 hPa | 0 mm | - | 0 W/m² | - |
| 1787822709 | 23.89° C | 38% | 1007 hPa | 0 mm | - | 0 W/m² | - |
| 1787822404 | 24.44° C | 37% | 1006.8 hPa | 0 mm | - | 0 W/m² | - |
| 1787822099 | 25° C | 34% | 1006.8 hPa | 0 mm | - | 0 W/m² | - |
| 1787821797 | 24.44° C | 35% | 1006.8 hPa | 0 mm | - | 0 W/m² | - |
| 1787821493 | 24.44° C | 35% | 1007 hPa | 0 mm | - | 0 W/m² | - |
| 1787821188 | 24.44° C | 35% | 1006.9 hPa | 0 mm | - | 0 W/m² | - |
| 1787820887 | 25° C | 35% | 1007 hPa | 0 mm | - | 0 W/m² | - |
| 1787820582 | 25° C | 34% | 1007.1 hPa | 0 mm | - | 0 W/m² | - |
| 1787820278 | 24.44° C | 36% | 1007 hPa | 0 mm | - | 0 W/m² | - |
| 1787819973 | 24.44° C | 35% | 1007 hPa | 0 mm | - | 0 W/m² | - |
| 1787819669 | 23.89° C | 37% | 1007.2 hPa | 0 mm | - | 0 W/m² | - |
| 1787819368 | 23.89° C | 37% | 1007 hPa | 0 mm | - | 0 W/m² | - |
| 1787819063 | 23.89° C | 37% | 1007 hPa | 0 mm | - | 0 W/m² | - |
| 1787818761 | 23.89° C | 37% | 1007.2 hPa | 0 mm | - | 0 W/m² | - |
| 1787818457 | 23.33° C | 39% | 1007.1 hPa | 0 mm | - | 0 W/m² | - |
| 1787818153 | 23.89° C | 39% | 1007.1 hPa | 0 mm | - | 0 W/m² | - |
| 1787817852 | 24.44° C | 37% | 1007.2 hPa | 0 mm | - | 0 W/m² | - |
| 1787817548 | 24.44° C | 37% | 1007.3 hPa | 0 mm | - | 0 W/m² | - |
| 1787817244 | 25° C | 35% | 1007.3 hPa | 0 mm | - | 0 W/m² | - |
| 1787816943 | 25° C | 35% | 1007.2 hPa | 0 mm | - | 0 W/m² | - |
* Rain latest hour (hover to see other rain measurements)
** Current wind speed in m/s (hover to see current wind gust speed)